createdAt,value
2022-12-07T00:00:27.176Z,85.38
2022-12-07T00:03:46.919Z,85.41
2022-12-07T00:06:54.347Z,85.50
2022-12-07T00:09:57.163Z,85.59
2022-12-07T00:13:00.012Z,85.59
2022-12-07T00:16:07.327Z,85.69
2022-12-07T00:19:12.414Z,85.62
2022-12-07T00:22:15.264Z,85.67
2022-12-07T00:25:18.072Z,85.97
2022-12-07T00:28:21.051Z,85.83
2022-12-07T00:31:27.398Z,85.71
2022-12-07T00:34:30.648Z,85.83
2022-12-07T00:37:33.475Z,85.86
2022-12-07T00:40:36.279Z,85.78
2022-12-07T00:43:40.273Z,85.77
2022-12-07T00:46:43.078Z,85.80
2022-12-07T00:49:51.858Z,85.73
2022-12-07T00:52:54.611Z,85.73
2022-12-07T00:55:57.460Z,85.58
2022-12-07T00:59:03.399Z,85.49
2022-12-07T01:02:06.160Z,85.48
2022-12-07T01:05:09.695Z,85.52
2022-12-07T01:08:12.682Z,85.60
2022-12-07T01:16:07.505Z,85.87
2022-12-07T01:19:10.328Z,85.96
2022-12-07T01:22:13.143Z,85.87
2022-12-07T01:25:15.976Z,85.81
2022-12-07T01:28:18.775Z,85.98
2022-12-07T01:31:24.708Z,85.97
2022-12-07T01:34:27.530Z,86.13
2022-12-07T01:37:38.849Z,86.10
2022-12-07T01:40:41.637Z,86.01
2022-12-07T01:44:18.694Z,86.57
2022-12-07T01:47:21.532Z,86.68
2022-12-07T01:50:28.166Z,86.61
2022-12-07T01:53:33.063Z,86.69
2022-12-07T01:56:37.280Z,86.68
2022-12-07T01:59:54.996Z,86.73
2022-12-07T02:03:03.955Z,86.81
2022-12-07T02:06:10.006Z,86.67
2022-12-07T02:14:02.977Z,86.87
2022-12-07T02:17:17.853Z,86.70
2022-12-07T02:20:29.108Z,86.74
2022-12-07T02:23:31.849Z,87.26
2022-12-07T02:26:53.283Z,87.09
2022-12-07T02:30:21.367Z,87.15
2022-12-07T02:33:34.421Z,87.16
2022-12-07T02:36:57.065Z,87.31
2022-12-07T02:40:18.674Z,87.26
2022-12-07T02:43:28.644Z,87.53
2022-12-07T02:46:37.225Z,87.43
2022-12-07T02:49:41.200Z,87.31
2022-12-07T02:52:44.024Z,87.41
2022-12-07T02:55:47.777Z,87.43
2022-12-07T02:59:18.853Z,87.55
2022-12-07T03:02:36.714Z,87.59
2022-12-07T03:05:51.812Z,87.81
2022-12-07T03:09:10.101Z,87.80
2022-12-07T03:12:29.674Z,87.88
2022-12-07T03:15:48.201Z,87.90
2022-12-07T03:19:23.417Z,87.95
2022-12-07T03:22:30.420Z,88.10
2022-12-07T03:25:36.487Z,88.06
2022-12-07T03:28:45.187Z,88.12
2022-12-07T03:32:20.812Z,88.15
2022-12-07T03:35:29.837Z,88.18
2022-12-07T03:38:47.266Z,88.16
2022-12-07T03:41:51.230Z,88.19
2022-12-07T03:44:54.740Z,88.33
2022-12-07T03:54:27.058Z,88.01
2022-12-07T04:02:28.710Z,87.93
2022-12-07T04:05:31.622Z,87.97
2022-12-07T04:08:34.469Z,87.83
2022-12-07T04:11:37.245Z,87.84
2022-12-07T04:14:40.165Z,88.03
2022-12-07T04:18:24.601Z,87.83
2022-12-07T04:21:27.661Z,87.81
2022-12-07T04:24:30.957Z,87.63
2022-12-07T04:27:33.860Z,87.65
2022-12-07T04:30:36.649Z,87.59
2022-12-07T04:33:39.469Z,87.35
2022-12-07T04:37:02.925Z,87.50
2022-12-07T04:40:09.807Z,87.27
2022-12-07T04:43:12.630Z,87.03
2022-12-07T04:46:15.504Z,86.82
2022-12-07T04:49:18.857Z,86.73
2022-12-07T04:59:56.406Z,86.37
2022-12-07T05:03:00.328Z,86.26
2022-12-07T05:06:10.335Z,86.12
2022-12-07T05:09:16.042Z,85.89
2022-12-07T05:12:18.858Z,85.66
2022-12-07T05:15:21.740Z,85.92
2022-12-07T05:18:24.976Z,85.63
2022-12-07T05:26:17.373Z,85.50
2022-12-07T05:29:20.615Z,85.23
2022-12-07T05:32:23.476Z,84.98
2022-12-07T05:35:29.031Z,85.11
2022-12-07T05:38:33.605Z,84.93
2022-12-07T05:42:22.392Z,84.77
2022-12-07T05:45:25.366Z,84.71
2022-12-07T05:48:28.304Z,84.51
2022-12-07T05:52:38.238Z,84.33
2022-12-07T05:55:41.153Z,84.21
2022-12-07T05:59:02.783Z,84.00
2022-12-07T06:02:12.570Z,84.04
2022-12-07T06:05:15.591Z,83.69
2022-12-07T06:13:13.241Z,83.72
2022-12-07T06:16:16.131Z,83.72
2022-12-07T06:19:20.110Z,83.39
2022-12-07T06:22:22.939Z,83.55
2022-12-07T06:25:26.732Z,83.52
2022-12-07T06:28:29.538Z,83.40
2022-12-07T06:31:32.886Z,83.31
2022-12-07T06:34:35.801Z,83.50
2022-12-07T06:37:38.563Z,83.24
2022-12-07T06:40:41.384Z,83.48
2022-12-07T06:43:44.159Z,83.29
2022-12-07T06:46:47.098Z,83.32
2022-12-07T06:49:49.926Z,83.33
2022-12-07T06:57:41.253Z,83.47
2022-12-07T07:00:44.853Z,83.25
2022-12-07T07:03:48.061Z,83.22
2022-12-07T07:08:19.737Z,83.40
2022-12-07T07:11:06.431Z,83.11
2022-12-07T07:18:33.827Z,83.34
2022-12-07T07:21:37.885Z,83.56
2022-12-07T07:24:40.716Z,83.40
2022-12-07T07:27:43.531Z,83.55
2022-12-07T07:30:46.873Z,83.31
2022-12-07T07:33:49.683Z,83.71
2022-12-07T07:36:52.583Z,83.75
2022-12-07T07:39:55.446Z,83.71
2022-12-07T07:42:59.015Z,83.78
2022-12-07T07:46:01.975Z,83.93
2022-12-07T07:49:05.047Z,83.78
2022-12-07T07:52:07.877Z,83.94
2022-12-07T07:55:11.196Z,83.78
2022-12-07T07:58:14.018Z,84.04
2022-12-07T08:01:17.652Z,84.06
2022-12-07T08:04:20.572Z,84.21
2022-12-07T08:07:23.441Z,84.22
2022-12-07T08:10:26.309Z,84.44
2022-12-07T08:13:31.183Z,84.52
2022-12-07T08:16:34.826Z,84.55
2022-12-07T08:19:42.015Z,84.97
2022-12-07T08:22:45.043Z,84.70
2022-12-07T08:25:47.857Z,85.10
2022-12-07T08:28:52.966Z,84.96
2022-12-07T08:31:57.354Z,84.85
2022-12-07T08:35:53.181Z,84.99
2022-12-07T08:39:29.969Z,85.17
2022-12-07T08:42:24.259Z,85.30
2022-12-07T08:45:27.834Z,85.28
2022-12-07T08:48:42.016Z,85.32
2022-12-07T08:51:46.146Z,85.04
2022-12-07T08:54:49.318Z,85.28
2022-12-07T08:57:52.797Z,85.28
2022-12-07T09:00:55.620Z,85.24
2022-12-07T09:03:58.446Z,85.12
2022-12-07T09:07:01.374Z,85.08
2022-12-07T09:10:06.421Z,85.06
2022-12-07T09:13:09.298Z,84.96
2022-12-07T09:16:12.223Z,85.13
2022-12-07T09:19:15.265Z,84.95
2022-12-07T09:22:18.491Z,85.00
2022-12-07T09:25:34.701Z,85.01
2022-12-07T09:28:37.657Z,85.16
2022-12-07T09:31:40.512Z,85.25
2022-12-07T09:34:43.410Z,85.29
2022-12-07T09:37:46.363Z,85.36
2022-12-07T09:40:49.435Z,85.58
2022-12-07T09:43:54.554Z,85.43
2022-12-07T09:46:59.432Z,85.61
2022-12-07T09:50:08.726Z,85.46
2022-12-07T09:53:26.793Z,85.44
2022-12-07T10:01:34.218Z,85.43
2022-12-07T10:04:38.978Z,85.73
2022-12-07T10:07:42.477Z,85.85
2022-12-07T10:10:47.460Z,85.69
2022-12-07T10:13:55.165Z,85.72
2022-12-07T10:16:58.620Z,85.69
2022-12-07T10:20:12.733Z,85.53
2022-12-07T10:23:19.560Z,85.68
2022-12-07T10:26:28.996Z,85.64
2022-12-07T10:29:37.249Z,85.49
2022-12-07T10:32:40.182Z,85.55
2022-12-07T10:35:46.146Z,85.41
2022-12-07T10:38:54.115Z,85.45
2022-12-07T10:41:59.962Z,85.33
2022-12-07T10:45:19.119Z,85.30
2022-12-07T10:48:52.707Z,85.36
2022-12-07T10:52:30.343Z,85.23
2022-12-07T10:56:25.304Z,85.07
2022-12-07T10:59:51.438Z,84.84
2022-12-07T11:03:07.188Z,84.91
2022-12-07T11:06:30.813Z,84.67
2022-12-07T11:10:11.082Z,84.65
2022-12-07T11:13:28.812Z,84.57
2022-12-07T11:16:48.601Z,84.43
2022-12-07T11:20:03.985Z,84.49
2022-12-07T11:23:22.467Z,84.41
2022-12-07T11:26:50.148Z,84.31
2022-12-07T11:30:09.030Z,84.28
2022-12-07T11:38:09.789Z,84.28
2022-12-07T11:41:14.583Z,84.04
2022-12-07T11:44:55.972Z,83.64
2022-12-07T11:48:02.766Z,83.53
2022-12-07T11:51:49.501Z,83.39
2022-12-07T11:54:54.661Z,82.99
2022-12-07T11:58:25.899Z,82.97
2022-12-07T12:01:32.052Z,82.87
2022-12-07T12:10:17.031Z,83.33
2022-12-07T12:17:21.130Z,83.79
2022-12-07T12:20:23.914Z,84.03
2022-12-07T12:23:58.759Z,84.06
2022-12-07T12:32:18.144Z,84.47
2022-12-07T12:35:27.661Z,84.52
2022-12-07T12:38:37.133Z,84.41
2022-12-07T12:46:30.132Z,84.53
2022-12-07T12:49:40.145Z,84.41
2022-12-07T12:53:14.066Z,84.14
2022-12-07T12:56:47.978Z,84.07
2022-12-07T12:59:53.829Z,83.77
2022-12-07T13:03:00.204Z,83.50
2022-12-07T13:06:20.827Z,83.24
2022-12-07T13:09:35.613Z,82.89
2022-12-07T13:12:38.616Z,82.62
2022-12-07T13:15:52.076Z,82.25
2022-12-07T13:23:46.262Z,81.98
2022-12-07T13:26:49.489Z,81.76
2022-12-07T13:29:52.642Z,81.53
2022-12-07T13:32:57.280Z,81.52
2022-12-07T13:36:01.580Z,81.29
2022-12-07T13:39:29.011Z,81.33
2022-12-07T13:42:45.534Z,81.31
2022-12-07T13:45:58.105Z,80.91
2022-12-07T13:49:00.989Z,80.83
2022-12-07T13:52:21.413Z,80.46
2022-12-07T13:55:24.525Z,80.37
2022-12-07T13:58:33.941Z,80.35
2022-12-07T14:01:37.001Z,80.12
2022-12-07T14:04:44.283Z,80.03
2022-12-07T14:07:57.957Z,80.07
2022-12-07T14:11:01.506Z,80.09
2022-12-07T14:14:18.042Z,79.92
2022-12-07T14:17:26.412Z,80.00
2022-12-07T14:20:37.444Z,80.05
2022-12-07T14:23:41.560Z,80.01
2022-12-07T14:26:47.404Z,80.19
2022-12-07T14:29:50.197Z,80.08
2022-12-07T14:32:58.286Z,80.18
2022-12-07T14:36:01.166Z,80.37
2022-12-07T14:39:07.494Z,80.22
2022-12-07T14:42:40.540Z,80.28
2022-12-07T14:45:43.881Z,80.29
2022-12-07T14:55:59.713Z,80.50
2022-12-07T14:59:02.563Z,80.56
2022-12-07T15:02:06.730Z,80.53
2022-12-07T15:05:15.399Z,80.71
2022-12-07T15:08:19.106Z,80.66
2022-12-07T15:11:22.549Z,80.80
2022-12-07T15:14:25.408Z,80.79
2022-12-07T15:17:32.198Z,80.81
2022-12-07T15:25:15.808Z,80.94
2022-12-07T15:28:18.737Z,81.13
2022-12-07T15:32:36.029Z,81.11
2022-12-07T15:35:43.829Z,81.10
2022-12-07T15:39:13.193Z,81.29
2022-12-07T15:42:09.864Z,81.43
2022-12-07T15:45:14.447Z,81.34
2022-12-07T15:48:32.643Z,81.48
2022-12-07T15:51:35.881Z,81.31
2022-12-07T15:54:38.988Z,81.40
2022-12-07T15:57:41.915Z,81.46
2022-12-07T16:00:44.861Z,81.59
2022-12-07T16:03:48.866Z,81.48
2022-12-07T16:06:52.715Z,81.52
2022-12-07T16:09:55.783Z,81.57
2022-12-07T16:17:51.988Z,81.78
2022-12-07T16:21:24.632Z,81.73
2022-12-07T16:24:28.739Z,81.88
2022-12-07T16:27:31.869Z,81.90
2022-12-07T16:30:35.224Z,81.94
2022-12-07T16:33:39.810Z,82.01
2022-12-07T16:41:21.142Z,81.89
2022-12-07T16:49:05.900Z,81.85
2022-12-07T16:52:19.925Z,81.98
2022-12-07T16:55:23.703Z,82.00
2022-12-07T17:02:50.958Z,81.92
2022-12-07T17:05:54.031Z,82.14
2022-12-07T17:08:58.299Z,82.24
2022-12-07T17:12:01.414Z,82.31
2022-12-07T17:15:21.968Z,82.35
2022-12-07T17:19:18.818Z,82.43
2022-12-07T17:22:22.463Z,82.32
2022-12-07T17:29:58.734Z,82.56
2022-12-07T17:33:02.298Z,82.83
2022-12-07T17:45:25.838Z,82.90
2022-12-07T17:48:28.790Z,83.07
2022-12-07T17:51:51.410Z,83.13
2022-12-07T17:54:54.321Z,82.95
2022-12-07T17:57:57.204Z,82.88
2022-12-07T18:01:00.287Z,83.04
2022-12-07T18:04:06.380Z,83.07
2022-12-07T18:07:12.075Z,83.08
2022-12-07T18:10:15.987Z,83.03
2022-12-07T18:13:46.051Z,82.85
2022-12-07T18:16:58.235Z,82.93
2022-12-07T18:20:03.471Z,83.13
2022-12-07T18:23:07.375Z,83.09
2022-12-07T18:26:13.588Z,83.09
2022-12-07T18:29:23.194Z,83.01
2022-12-07T18:37:18.412Z,83.00
2022-12-07T19:01:45.451Z,83.03
2022-12-07T19:08:29.112Z,82.81
2022-12-07T19:11:55.985Z,82.83
2022-12-07T19:15:04.997Z,82.47
2022-12-07T19:18:09.221Z,82.75
2022-12-07T19:25:03.363Z,82.57
2022-12-07T19:28:27.396Z,82.59
2022-12-07T19:31:44.864Z,82.72
2022-12-07T19:34:58.860Z,82.86
2022-12-07T19:38:03.203Z,82.66
2022-12-07T19:41:48.429Z,82.68
2022-12-07T20:07:16.950Z,82.51
2022-12-07T20:08:18.860Z,82.63
2022-12-07T20:09:10.960Z,82.66
2022-12-07T20:09:48.069Z,82.61
2022-12-07T20:12:32.475Z,82.52
2022-12-07T20:15:43.879Z,82.56
2022-12-07T20:18:54.310Z,82.36
2022-12-07T20:22:04.591Z,82.46
2022-12-07T20:25:09.494Z,82.24
2022-12-07T20:28:13.530Z,82.41
2022-12-07T20:31:17.746Z,82.41
2022-12-07T20:34:31.198Z,82.49
2022-12-07T20:45:52.629Z,82.47
2022-12-07T20:48:11.198Z,82.23
2022-12-07T20:48:45.702Z,82.35
2022-12-07T20:49:00.398Z,82.52
2022-12-07T20:52:04.327Z,82.32
2022-12-07T20:55:09.063Z,82.38
2022-12-07T20:58:12.128Z,82.38
2022-12-07T21:01:16.108Z,82.31
2022-12-07T21:04:21.399Z,82.37
2022-12-07T21:07:26.069Z,82.43
2022-12-07T21:10:31.312Z,82.40
2022-12-07T21:13:35.015Z,82.44
2022-12-07T21:16:38.446Z,82.29
2022-12-07T21:19:41.896Z,82.34
2022-12-07T21:22:55.495Z,82.41
2022-12-07T21:25:58.836Z,82.51
2022-12-07T21:33:33.760Z,82.74
2022-12-07T21:38:58.120Z,82.50
2022-12-07T21:39:08.551Z,82.85
2022-12-07T21:41:24.977Z,83.13
2022-12-07T21:44:28.154Z,83.08
2022-12-07T21:47:33.185Z,83.20
2022-12-07T21:50:42.052Z,83.45
2022-12-07T21:53:45.226Z,83.32
2022-12-07T21:56:48.485Z,83.52
2022-12-07T21:59:52.633Z,83.52
2022-12-07T22:02:59.344Z,83.71
2022-12-07T22:06:59.502Z,83.96
2022-12-07T22:10:02.479Z,83.89
2022-12-07T22:13:09.911Z,84.11
2022-12-07T22:16:13.037Z,84.35
2022-12-07T22:19:17.282Z,83.99
2022-12-07T22:22:21.486Z,84.38
2022-12-07T22:25:24.738Z,84.20
2022-12-07T22:28:27.853Z,84.64
2022-12-07T22:31:31.138Z,84.39
2022-12-07T22:34:34.744Z,84.63
2022-12-07T22:37:47.394Z,84.50
2022-12-07T22:40:51.479Z,84.34
2022-12-07T22:44:55.613Z,84.92
2022-12-07T22:47:58.685Z,84.65
2022-12-07T22:51:02.076Z,84.64
2022-12-07T22:54:15.970Z,84.52
2022-12-07T22:57:21.112Z,84.61
2022-12-07T23:00:24.207Z,84.53
2022-12-07T23:03:28.282Z,84.55
2022-12-07T23:06:34.134Z,84.59
2022-12-07T23:09:37.742Z,84.67
2022-12-07T23:12:59.503Z,84.60
2022-12-07T23:16:14.611Z,84.70
2022-12-07T23:19:17.926Z,84.69
2022-12-07T23:22:21.048Z,84.80
2022-12-07T23:25:24.041Z,84.75
2022-12-07T23:28:26.982Z,84.78
2022-12-07T23:31:30.344Z,84.56
2022-12-07T23:34:33.404Z,84.60
2022-12-07T23:37:36.384Z,84.46
2022-12-07T23:40:39.474Z,84.19
2022-12-07T23:43:43.646Z,84.21
2022-12-07T23:51:35.793Z,84.29
2022-12-07T23:54:38.880Z,84.14
2022-12-07T23:57:45.418Z,83.93
